Time;durP1;ratioP1;P1;durP2;ratioP2;P2;SDS_P1;SDS_P2;PMS_P1;PMS_P2;Temp;Humidity;BMP_temperature;BMP_pressure;BME280_temperature;BME280_humidity;BME280_pressure;Samples;Min_cycle;Max_cycle;Signal;HPM_P1;HPM_P2
2021/01/22 00:02:06;;;;;;;2.60;2.08;;;7.70;86.60;;;;;;4899664;29;20099;-75
2021/01/22 00:04:32;;;;;;;2.03;1.80;;;7.40;86.50;;;;;;4899725;29;20432;-76
2021/01/22 00:06:57;;;;;;;1.95;1.75;;;7.10;86.80;;;;;;4899609;29;20040;-75
2021/01/22 00:09:23;;;;;;;1.70;1.60;;;6.90;87.20;;;;;;4916767;29;20091;-76
2021/01/22 00:11:49;;;;;;;1.58;1.48;;;6.70;87.40;;;;;;4915377;29;20055;-76
2021/01/22 00:14:15;;;;;;;1.70;1.60;;;6.60;87.70;;;;;;4915282;29;20577;-76
2021/01/22 00:16:41;;;;;;;1.42;1.33;;;6.50;88.00;;;;;;4916905;29;20523;-75
2021/01/22 00:19:07;;;;;;;1.60;1.50;;;6.30;88.20;;;;;;4915283;29;20024;-75
2021/01/22 00:21:33;;;;;;;1.60;1.50;;;6.20;88.30;;;;;;4916604;29;20043;-76
2021/01/22 00:23:59;;;;;;;1.60;1.50;;;6.10;88.50;;;;;;4916621;29;20033;-75
2021/01/22 00:26:25;;;;;;;1.65;1.52;;;6.10;89.00;;;;;;4915471;29;20115;-75
2021/01/22 00:28:51;;;;;;;2.28;1.60;;;6.00;88.80;;;;;;4916553;29;20365;-75
2021/01/22 00:31:16;;;;;;;1.83;1.48;;;5.90;88.80;;;;;;4920432;29;20038;-75
2021/01/22 00:33:42;;;;;;;1.77;1.67;;;5.90;89.30;;;;;;4920080;29;20039;-76
2021/01/22 00:36:08;;;;;;;1.60;1.50;;;5.80;89.00;;;;;;4920219;29;20032;-75
2021/01/22 00:38:34;;;;;;;1.40;1.30;;;5.80;89.20;;;;;;4920203;29;20511;-76
2021/01/22 00:41:00;;;;;;;2.63;1.55;;;5.80;89.40;;;;;;4920254;29;20024;-75
2021/01/22 00:43:26;;;;;;;1.38;1.27;;;5.80;89.40;;;;;;4920448;29;20108;-75
2021/01/22 00:45:52;;;;;;;1.05;1.05;;;5.70;89.20;;;;;;4918872;29;20032;-75
2021/01/22 00:48:17;;;;;;;1.80;1.58;;;5.70;89.40;;;;;;4918573;29;20551;-76
2021/01/22 00:50:43;;;;;;;2.75;2.05;;;5.60;89.10;;;;;;4920069;29;20038;-76
2021/01/22 00:53:09;;;;;;;1.67;1.20;;;5.60;89.40;;;;;;4918157;29;20078;-76
2021/01/22 00:55:35;;;;;;;1.50;0.80;;;5.60;89.50;;;;;;4918433;29;20028;-76
2021/01/22 00:58:00;;;;;;;0.80;0.80;;;5.50;89.10;;;;;;4902645;29;20032;-75
2021/01/22 01:00:26;;;;;;;1.55;0.80;;;5.40;89.30;;;;;;4919492;29;20032;-76
2021/01/22 01:02:51;;;;;;;0.93;0.93;;;5.40;89.20;;;;;;4902368;29;20039;-75
2021/01/22 01:05:17;;;;;;;1.17;1.00;;;5.30;89.30;;;;;;4919705;29;20036;-76
2021/01/22 01:07:43;;;;;;;0.95;0.95;;;5.30;89.50;;;;;;4919639;29;20039;-76
2021/01/22 01:10:09;;;;;;;1.85;1.00;;;5.20;89.40;;;;;;4902462;29;20523;-76
2021/01/22 01:12:35;;;;;;;1.85;1.00;;;5.20;89.40;;;;;;4902465;29;20115;-76
2021/01/22 01:15:02;;;;;;;1.20;1.10;;;5.20;89.50;;;;;;4919635;29;20164;-76
2021/01/22 01:17:28;;;;;;;1.52;1.27;;;5.10;89.70;;;;;;4919186;29;20160;-76
2021/01/22 01:19:54;;;;;;;1.67;1.40;;;5.10;89.90;;;;;;4919109;29;20075;-75
2021/01/22 01:22:19;;;;;;;1.38;1.27;;;5.10;89.90;;;;;;4917794;29;20448;-75
2021/01/22 01:24:45;;;;;;;2.10;1.50;;;5.20;90.00;;;;;;4902032;29;20373;-76
2021/01/22 01:27:10;;;;;;;1.70;1.60;;;5.20;90.00;;;;;;4918993;29;20052;-76
2021/01/22 01:29:36;;;;;;;1.92;1.50;;;5.20;90.00;;;;;;4917559;29;20031;-76
2021/01/22 01:32:02;;;;;;;2.20;1.45;;;5.20;90.00;;;;;;4918954;29;20044;-75
2021/01/22 01:34:27;;;;;;;4.03;1.60;;;5.30;90.00;;;;;;4917475;29;20120;-75
2021/01/22 01:36:53;;;;;;;1.58;1.40;;;5.30;90.10;;;;;;4917485;29;20400;-75
2021/01/22 01:39:19;;;;;;;1.55;1.40;;;5.30;90.00;;;;;;4917578;29;20071;-75
2021/01/22 01:41:44;;;;;;;1.60;1.50;;;5.30;90.00;;;;;;4917002;29;20519;-76
2021/01/22 01:44:10;;;;;;;1.42;1.30;;;5.30;90.00;;;;;;4918977;29;20028;-75
2021/01/22 01:46:35;;;;;;;1.67;1.40;;;5.30;90.00;;;;;;4919131;29;20028;-75
2021/01/22 01:49:01;;;;;;;1.63;1.20;;;5.30;89.90;;;;;;4917585;29;20055;-75
2021/01/22 01:51:27;;;;;;;3.03;1.48;;;5.30;89.90;;;;;;4918831;29;20071;-75
2021/01/22 01:53:54;;;;;;;2.33;1.10;;;5.30;90.00;;;;;;4918600;29;20456;-75
2021/01/22 01:56:21;;;;;;;1.40;1.30;;;5.40;90.00;;;;;;4918950;29;20086;-75
2021/01/22 01:58:47;;;;;;;2.00;1.65;;;5.40;89.90;;;;;;4919035;29;20103;-75
2021/01/22 02:01:16;;;;;;;1.60;1.50;;;5.40;89.90;;;;;;4918394;29;20146;-75
2021/01/22 02:03:41;;;;;;;2.85;1.85;;;5.30;89.80;;;;;;4901535;29;20127;-76
2021/01/22 02:06:07;;;;;;;3.13;1.50;;;5.30;89.80;;;;;;4917108;29;20376;-75
2021/01/22 02:08:33;;;;;;;2.15;1.90;;;5.20;89.80;;;;;;4916822;29;20067;-75
2021/01/22 02:11:04;;;;;;;1.90;1.80;;;5.20;89.80;;;;;;4916788;29;20030;-75
2021/01/22 02:13:31;;;;;;;2.15;1.70;;;5.20;90.00;;;;;;4916941;29;20024;-75
2021/01/22 02:15:59;;;;;;;2.53;2.00;;;5.30;90.30;;;;;;4916695;29;20032;-75
2021/01/22 02:18:25;;;;;;;3.35;2.00;;;5.30;90.10;;;;;;4916671;29;20020;-75
2021/01/22 02:21:05;;;;;;;2.28;1.90;;;5.30;90.00;;;;;;4917795;29;20057;-75
2021/01/22 02:27:25;;;;;;;2.95;2.55;;;5.40;90.00;;;;;;4918330;29;20168;-76
2021/01/22 02:29:51;;;;;;;3.75;2.42;;;5.50;90.00;;;;;;4917667;29;20139;-76
2021/01/22 02:32:18;;;;;;;2.80;2.45;;;5.40;90.00;;;;;;4918198;29;20441;-76
2021/01/22 02:34:45;;;;;;;4.35;3.10;;;5.50;90.00;;;;;;4916380;29;20119;-75
2021/01/22 02:37:13;;;;;;;3.78;2.70;;;5.50;90.00;;;;;;4917634;29;20059;-76
2021/01/22 02:39:42;;;;;;;4.43;3.25;;;5.50;90.00;;;;;;4917741;29;20024;-75
2021/01/22 02:42:09;;;;;;;6.25;3.65;;;5.50;90.00;;;;;;4916138;29;20032;-76
2021/01/22 02:44:36;;;;;;;5.70;3.83;;;5.60;90.00;;;;;;4917504;29;20168;-75
2021/01/22 02:47:09;;;;;;;4.45;3.60;;;5.50;90.00;;;;;;4917547;29;20065;-76
2021/01/22 02:49:36;;;;;;;5.78;4.00;;;5.50;90.00;;;;;;4917482;29;20040;-75
2021/01/22 02:52:02;;;;;;;5.80;3.90;;;5.50;90.10;;;;;;4916051;29;20024;-76
2021/01/22 02:54:28;;;;;;;6.20;4.70;;;5.50;90.00;;;;;;4911943;29;20139;-75
2021/01/22 02:57:09;;;;;;;7.00;4.88;;;5.50;90.00;;;;;;4897140;29;20068;-75
2021/01/22 02:59:51;;;;;;;6.18;4.80;;;5.50;90.00;;;;;;4898378;29;20032;-75
2021/01/22 03:02:39;;;;;;;8.02;5.20;;;5.50;90.00;;;;;;4898493;29;20048;-75
2021/01/22 03:05:07;;;;;;;5.90;4.82;;;5.40;90.30;;;;;;4897234;29;20388;-76
2021/01/22 03:07:44;;;;;;;7.82;5.00;;;5.40;90.10;;;;;;4898507;29;20433;-75
2021/01/22 03:10:11;;;;;;;10.07;5.82;;;5.40;90.10;;;;;;4898156;29;20032;-76
2021/01/22 03:12:37;;;;;;;7.32;5.25;;;5.40;90.10;;;;;;4912678;29;20071;-75
2021/01/22 03:15:04;;;;;;;8.10;5.45;;;5.40;90.00;;;;;;4898310;29;20036;-76
2021/01/22 03:17:30;;;;;;;7.55;5.32;;;5.40;90.00;;;;;;4912506;29;20039;-75
2021/01/22 03:19:56;;;;;;;7.88;5.50;;;5.40;90.10;;;;;;4898206;29;20444;-76
2021/01/22 03:22:23;;;;;;;7.80;5.30;;;5.30;90.00;;;;;;4898112;29;20029;-74
2021/01/22 03:24:48;;;;;;;8.23;5.47;;;5.30;90.10;;;;;;4896717;29;20085;-75
2021/01/22 03:27:15;;;;;;;6.80;5.15;;;5.30;90.10;;;;;;4896711;29;20037;-76
2021/01/22 03:29:41;;;;;;;7.05;5.10;;;5.30;90.10;;;;;;4896532;29;20507;-75
2021/01/22 03:32:08;;;;;;;7.13;5.00;;;5.30;90.10;;;;;;4898003;29;20036;-76
2021/01/22 03:34:33;;;;;;;8.40;5.38;;;5.30;90.10;;;;;;4896900;29;20113;-75
2021/01/22 03:37:01;;;;;;;5.70;4.72;;;5.30;90.10;;;;;;4897865;29;20021;-76
2021/01/22 03:39:27;;;;;;;9.05;5.18;;;5.30;90.20;;;;;;4897789;29;20032;-76
2021/01/22 03:41:53;;;;;;;5.50;4.97;;;5.30;90.20;;;;;;4897841;29;20037;-76
2021/01/22 03:44:20;;;;;;;6.43;4.28;;;5.30;90.10;;;;;;4897787;29;20040;-76
2021/01/22 03:46:47;;;;;;;5.32;3.90;;;5.30;90.10;;;;;;4896543;29;20031;-75
2021/01/22 03:49:13;;;;;;;4.93;3.60;;;5.30;90.10;;;;;;4897992;29;20048;-75
2021/01/22 03:51:39;;;;;;;3.97;3.58;;;5.40;90.10;;;;;;4897894;29;20039;-75
2021/01/22 03:54:05;;;;;;;3.90;3.30;;;5.40;90.00;;;;;;4896417;29;20065;-75
2021/01/22 03:56:34;;;;;;;4.85;3.17;;;5.40;90.00;;;;;;4912172;29;20369;-75
2021/01/22 03:59:00;;;;;;;5.95;3.45;;;5.40;90.00;;;;;;4896406;29;20036;-75
2021/01/22 04:01:28;;;;;;;4.32;3.20;;;5.30;90.00;;;;;;4896384;29;20475;-75
2021/01/22 04:03:53;;;;;;;3.85;2.95;;;5.30;89.90;;;;;;4896629;29;20507;-75
2021/01/22 04:06:19;;;;;;;4.13;3.00;;;5.20;90.00;;;;;;4915907;29;20025;-76
2021/01/22 04:08:45;;;;;;;3.75;2.70;;;5.20;90.00;;;;;;4915929;29;20056;-75
2021/01/22 04:11:11;;;;;;;3.20;2.55;;;5.20;90.00;;;;;;4915993;29;20025;-75
2021/01/22 04:13:37;;;;;;;3.38;2.35;;;5.10;90.00;;;;;;4900102;29;20106;-75
2021/01/22 04:16:03;;;;;;;2.70;2.15;;;5.10;90.10;;;;;;4899993;29;20032;-76
2021/01/22 04:18:29;;;;;;;2.63;2.10;;;5.10;90.10;;;;;;4900000;29;20029;-76
2021/01/22 04:20:55;;;;;;;2.30;2.08;;;5.20;90.10;;;;;;4901275;29;20029;-75
2021/01/22 04:23:20;;;;;;;4.07;2.35;;;5.30;90.10;;;;;;4901616;29;20503;-75
2021/01/22 04:25:47;;;;;;;2.55;1.83;;;5.30;90.00;;;;;;4901263;29;20045;-75
2021/01/22 04:28:13;;;;;;;2.55;1.70;;;5.30;90.00;;;;;;4900016;29;20032;-75
2021/01/22 04:30:38;;;;;;;4.72;2.17;;;5.40;89.90;;;;;;4901083;29;20499;-75
2021/01/22 04:33:05;;;;;;;2.72;1.85;;;5.40;90.20;;;;;;4901195;29;20107;-75
2021/01/22 04:35:31;;;;;;;3.35;1.92;;;5.40;89.70;;;;;;4900981;29;20029;-75
2021/01/22 04:37:56;;;;;;;3.97;2.08;;;5.50;89.80;;;;;;4899698;29;20184;-75
2021/01/22 04:40:24;;;;;;;3.53;2.28;;;5.50;89.80;;;;;;4900830;29;20503;-75
2021/01/22 04:42:50;;;;;;;2.63;2.13;;;5.50;89.70;;;;;;4899498;29;20500;-76
2021/01/22 04:45:16;;;;;;;2.83;1.95;;;5.60;89.60;;;;;;4900828;29;20040;-75
2021/01/22 04:47:42;;;;;;;3.00;2.00;;;5.60;89.60;;;;;;4900759;29;20029;-75
2021/01/22 04:50:09;;;;;;;3.50;2.00;;;5.60;89.60;;;;;;4900541;29;20131;-76
2021/01/22 04:52:36;;;;;;;4.03;2.33;;;5.60;89.50;;;;;;4915192;29;20076;-75
2021/01/22 04:55:07;;;;;;;3.38;2.00;;;5.60;89.50;;;;;;4917818;29;20048;-76
2021/01/22 04:57:40;;;;;;;3.65;2.05;;;5.60;89.50;;;;;;4919286;29;20035;-75
2021/01/22 05:00:07;;;;;;;2.58;2.05;;;5.60;89.50;;;;;;4919743;29;20035;-76
2021/01/22 05:02:33;;;;;;;2.72;2.17;;;5.60;89.40;;;;;;4919262;29;20036;-75
2021/01/22 05:04:59;;;;;;;3.88;2.78;;;5.60;89.40;;;;;;4918038;29;20397;-76
2021/01/22 05:07:25;;;;;;;2.97;2.47;;;5.60;89.40;;;;;;4917894;29;20036;-75
2021/01/22 05:09:50;;;;;;;2.70;2.50;;;5.60;89.30;;;;;;4919263;29;20032;-76
2021/01/22 05:12:16;;;;;;;4.03;3.40;;;5.60;89.40;;;;;;4917874;29;20121;-75
2021/01/22 05:14:42;;;;;;;4.13;3.08;;;5.60;89.30;;;;;;4919097;29;20102;-75
2021/01/22 05:17:09;;;;;;;5.85;3.70;;;5.60;89.40;;;;;;4916845;29;20396;-76
2021/01/22 05:19:37;;;;;;;5.93;3.70;;;5.60;89.40;;;;;;4917737;29;20495;-75
2021/01/22 05:22:04;;;;;;;5.40;3.92;;;5.60;89.40;;;;;;4917791;29;20032;-76
2021/01/22 05:24:31;;;;;;;5.57;4.15;;;5.60;89.20;;;;;;4901818;29;20472;-75
2021/01/22 05:27:08;;;;;;;7.70;5.05;;;5.60;89.30;;;;;;4917837;29;20043;-76
2021/01/22 05:29:35;;;;;;;7.57;5.30;;;5.60;89.40;;;;;;4918707;29;20039;-75
2021/01/22 05:32:03;;;;;;;9.68;5.70;;;5.60;89.40;;;;;;4918925;29;20092;-76
2021/01/22 05:34:46;;;;;;;9.68;6.70;;;5.60;89.40;;;;;;4919035;29;20118;-75
2021/01/22 05:37:12;;;;;;;12.32;7.75;;;5.70;89.30;;;;;;4918735;29;20030;-75
2021/01/22 05:39:38;;;;;;;11.75;7.78;;;5.60;89.10;;;;;;4917237;29;20028;-75
2021/01/22 05:42:04;;;;;;;11.93;8.77;;;5.60;89.20;;;;;;4917358;29;20031;-76
2021/01/22 05:44:29;;;;;;;13.68;8.40;;;5.60;89.30;;;;;;4901673;29;20128;-75
2021/01/22 05:47:03;;;;;;;11.48;8.30;;;5.60;89.20;;;;;;4918982;29;20031;-76
2021/01/22 05:49:28;;;;;;;13.98;9.35;;;5.70;89.30;;;;;;4918456;29;20028;-75
2021/01/22 05:51:55;;;;;;;10.07;8.50;;;5.60;89.10;;;;;;4918364;29;20036;-75
2021/01/22 05:54:37;;;;;;;13.93;9.25;;;5.60;89.10;;;;;;4918205;29;20052;-75
2021/01/22 05:57:05;;;;;;;12.43;8.63;;;5.60;89.20;;;;;;4918340;29;20028;-75
2021/01/22 05:59:34;;;;;;;15.27;9.45;;;5.60;89.20;;;;;;4918335;29;20032;-76
2021/01/22 06:02:19;;;;;;;12.95;9.27;;;5.60;89.30;;;;;;4916969;29;20029;-75
2021/01/22 06:05:06;;;;;;;13.75;9.52;;;5.60;89.40;;;;;;4918105;29;20127;-76
2021/01/22 06:07:32;;;;;;;11.95;9.25;;;5.70;89.40;;;;;;4917973;29;20064;-75
2021/01/22 06:09:58;;;;;;;12.73;9.25;;;5.60;89.30;;;;;;4918440;29;20451;-75
2021/01/22 06:12:24;;;;;;;14.90;10.55;;;5.70;89.30;;;;;;4918381;29;20106;-75
2021/01/22 06:14:50;;;;;;;13.43;9.13;;;5.70;89.30;;;;;;4918003;29;20187;-75
2021/01/22 06:17:16;;;;;;;12.32;9.20;;;5.70;89.20;;;;;;4918029;29;20024;-76
2021/01/22 06:19:44;;;;;;;12.55;9.65;;;5.70;89.20;;;;;;4916583;29;20059;-75
2021/01/22 06:22:25;;;;;;;11.75;9.75;;;5.70;89.10;;;;;;4917917;29;20040;-76
2021/01/22 06:24:51;;;;;;;14.05;9.32;;;5.70;89.10;;;;;;4917903;29;20097;-75
2021/01/22 06:27:18;;;;;;;14.35;9.98;;;5.70;89.10;;;;;;4918025;29;20120;-76
2021/01/22 06:29:45;;;;;;;11.85;9.80;;;5.80;89.10;;;;;;4917640;29;20101;-76
2021/01/22 06:32:12;;;;;;;14.32;9.57;;;5.80;89.10;;;;;;4917664;29;20076;-76
2021/01/22 06:34:39;;;;;;;14.00;9.90;;;5.80;89.10;;;;;;4916527;29;20044;-76
2021/01/22 06:37:07;;;;;;;13.52;9.65;;;5.80;89.10;;;;;;4916215;29;20157;-75
2021/01/22 06:39:33;;;;;;;14.10;10.32;;;5.80;89.10;;;;;;4916234;29;20024;-75
2021/01/22 06:42:03;;;;;;;15.98;11.00;;;5.80;89.10;;;;;;4900747;29;20059;-76
2021/01/22 06:44:29;;;;;;;16.67;10.73;;;5.90;89.20;;;;;;4916387;29;20060;-75
2021/01/22 06:46:58;;;;;;;12.35;9.80;;;5.80;89.00;;;;;;4917513;29;20031;-76
2021/01/22 06:49:31;;;;;;;16.48;10.75;;;5.80;89.00;;;;;;4917280;29;20412;-75
2021/01/22 06:52:13;;;;;;;13.23;9.73;;;5.90;89.00;;;;;;4900333;29;20024;-75
2021/01/22 06:54:57;;;;;;;13.35;9.95;;;5.80;88.90;;;;;;4916001;29;20048;-76
2021/01/22 06:57:25;;;;;;;;;;;5.90;88.90;;;;;;4917755;29;20107;-75
2021/01/22 06:59:51;;;;;;;14.35;9.77;;;5.90;89.00;;;;;;4917057;29;19997;-74
2021/01/22 07:02:32;;;;;;;16.25;10.23;;;5.90;88.90;;;;;;4917556;29;20464;-76
2021/01/22 07:04:58;;;;;;;16.83;10.68;;;5.80;88.80;;;;;;4917202;29;20067;-75
2021/01/22 07:07:46;;;;;;;13.63;10.23;;;5.80;88.80;;;;;;4917171;29;20070;-76
2021/01/22 07:10:12;;;;;;;13.95;9.98;;;5.80;88.90;;;;;;4916892;29;20028;-75
2021/01/22 07:12:40;;;;;;;15.63;10.48;;;5.70;88.90;;;;;;4915606;29;20448;-75
2021/01/22 07:15:24;;;;;;;13.30;9.70;;;5.70;89.00;;;;;;4917144;29;20032;-76
2021/01/22 07:17:59;;;;;;;;;;;5.70;89.00;;;;;;4916270;29;20119;-75
2021/01/22 07:20:28;;;;;;;11.50;9.30;;;5.60;89.00;;;;;;4916970;29;19950;-76
2021/01/22 07:22:59;;;;;;;14.38;9.65;;;5.60;89.00;;;;;;4915524;29;20047;-75
2021/01/22 07:25:34;;;;;;;13.13;9.20;;;5.60;89.00;;;;;;4915491;29;20042;-75
2021/01/22 07:28:23;;;;;;;13.35;9.02;;;5.60;89.00;;;;;;4917134;29;20032;-75
2021/01/22 07:30:53;;;;;;;12.35;9.48;;;5.70;89.10;;;;;;4917226;29;20052;-75
2021/01/22 07:33:28;;;;;;;10.68;8.68;;;5.70;89.00;;;;;;4916823;29;20043;-76
2021/01/22 07:36:10;;;;;;;12.60;9.70;;;5.70;89.00;;;;;;4916816;29;20032;-75
2021/01/22 07:38:38;;;;;;;12.88;9.68;;;5.70;89.00;;;;;;4916336;29;20036;-75
2021/01/22 07:41:04;;;;;;;13.55;9.35;;;5.70;88.90;;;;;;4917447;29;20087;-75
2021/01/22 07:43:30;;;;;;;14.13;9.60;;;5.70;88.80;;;;;;4917121;29;20059;-75
2021/01/22 07:46:10;;;;;;;14.20;10.43;;;5.70;88.90;;;;;;4917593;29;20028;-75
2021/01/22 07:48:37;;;;;;;12.93;8.50;;;5.70;88.90;;;;;;4917136;29;20437;-75
2021/01/22 07:51:31;;;;;;;16.52;9.90;;;5.70;88.80;;;;;;4915339;29;20032;-75
2021/01/22 07:53:59;;;;;;;14.88;9.05;;;5.70;88.90;;;;;;4915033;29;20096;-74
2021/01/22 07:56:38;;;;;;;11.60;8.82;;;5.70;89.00;;;;;;4915450;29;20039;-75
2021/01/22 07:59:05;;;;;;;12.93;9.63;;;5.70;88.70;;;;;;4915139;29;20029;-75
2021/01/22 08:01:31;;;;;;;15.10;9.35;;;5.70;88.70;;;;;;4915105;29;20032;-75
2021/01/22 08:03:57;;;;;;;12.65;9.05;;;5.70;88.80;;;;;;4899405;29;20197;-74
2021/01/22 08:06:22;;;;;;;16.13;10.32;;;5.60;88.80;;;;;;4916228;29;20029;-72
2021/01/22 08:09:02;;;;;;;13.98;8.95;;;5.60;88.80;;;;;;4899548;29;20368;-72
2021/01/22 08:11:28;;;;;;;11.43;8.65;;;5.60;88.80;;;;;;4915328;29;20040;-74
2021/01/22 08:13:54;;;;;;;13.18;8.48;;;5.60;88.80;;;;;;4915163;29;20428;-73
2021/01/22 08:16:23;;;;;;;13.80;9.07;;;5.60;88.80;;;;;;4916967;29;20099;-73
2021/01/22 08:18:50;;;;;;;11.77;7.90;;;5.70;89.50;;;;;;4916656;29;20095;-73
2021/01/22 08:21:16;;;;;;;15.43;8.88;;;5.70;88.80;;;;;;4916509;29;20035;-73
2021/01/22 08:23:44;;;;;;;11.25;8.00;;;5.80;88.90;;;;;;4915230;29;20131;-73
2021/01/22 08:26:11;;;;;;;12.10;8.23;;;5.80;88.80;;;;;;4899640;29;20480;-73
2021/01/22 08:28:39;;;;;;;13.23;7.50;;;5.80;88.60;;;;;;4916421;29;20559;-73
2021/01/22 08:31:07;;;;;;;11.23;7.65;;;5.80;88.60;;;;;;4916180;29;20468;-73
2021/01/22 08:33:34;;;;;;;12.15;8.32;;;5.80;88.50;;;;;;4914797;29;20035;-73
2021/01/22 08:36:00;;;;;;;11.80;8.30;;;5.80;88.30;;;;;;4916148;29;20083;-73
2021/01/22 08:38:26;;;;;;;10.35;8.15;;;5.80;88.40;;;;;;4914704;29;20032;-74
2021/01/22 08:40:52;;;;;;;16.23;9.48;;;5.80;88.40;;;;;;4915892;29;20048;-74
2021/01/22 08:43:18;;;;;;;13.55;7.85;;;5.80;88.40;;;;;;4916074;29;20428;-74
2021/01/22 08:46:12;;;;;;;10.73;7.88;;;5.80;88.40;;;;;;4914677;29;20484;-73
2021/01/22 08:48:38;;;;;;;11.02;7.72;;;5.80;88.40;;;;;;4914634;29;20036;-74
2021/01/22 08:51:06;;;;;;;12.63;7.93;;;5.80;88.40;;;;;;4917665;29;20068;-74
2021/01/22 08:53:33;;;;;;;11.60;7.68;;;5.90;88.40;;;;;;4919256;29;20056;-74
2021/01/22 08:56:15;;;;;;;11.85;7.60;;;5.80;88.40;;;;;;4919541;29;20023;-73
2021/01/22 08:58:56;;;;;;;10.65;6.97;;;5.90;88.40;;;;;;4918146;29;20127;-73
2021/01/22 09:01:22;;;;;;;10.88;7.30;;;5.90;88.40;;;;;;4917905;29;20035;-74
2021/01/22 09:03:47;;;;;;;10.80;6.95;;;6.00;88.40;;;;;;4919233;29;20060;-74
2021/01/22 09:06:13;;;;;;;8.27;6.55;;;6.00;88.20;;;;;;4918943;29;20036;-74
2021/01/22 09:08:54;;;;;;;8.23;6.35;;;6.00;88.10;;;;;;4919018;29;20032;-73
2021/01/22 09:11:38;;;;;;;8.63;6.35;;;6.00;88.10;;;;;;4917654;29;20028;-74
2021/01/22 09:14:04;;;;;;;7.57;6.00;;;6.00;88.10;;;;;;4919162;29;20040;-74
2021/01/22 09:16:30;;;;;;;10.43;6.05;;;6.00;88.20;;;;;;4919069;29;20424;-73
2021/01/22 09:19:01;;;;;;;8.32;6.28;;;6.00;88.10;;;;;;4919010;29;20500;-73
2021/01/22 09:21:27;;;;;;;11.25;6.10;;;6.00;88.10;;;;;;4918967;29;20060;-73
2021/01/22 09:23:53;;;;;;;8.52;5.82;;;6.10;88.10;;;;;;4917792;29;20031;-73
2021/01/22 09:26:18;;;;;;;9.93;6.45;;;6.10;88.00;;;;;;4917519;29;20122;-74
2021/01/22 09:28:45;;;;;;;12.13;6.10;;;6.10;88.00;;;;;;4917919;29;20062;-73
2021/01/22 09:31:11;;;;;;;10.88;6.75;;;6.10;87.80;;;;;;4917320;29;20039;-73
2021/01/22 09:33:37;;;;;;;13.73;7.35;;;6.10;87.80;;;;;;4919014;29;20046;-73
2021/01/22 09:36:03;;;;;;;9.27;6.50;;;6.10;87.80;;;;;;4917368;29;20429;-74
2021/01/22 09:38:28;;;;;;;10.15;6.10;;;6.10;87.70;;;;;;4918611;29;20078;-74
2021/01/22 09:40:54;;;;;;;12.95;6.82;;;6.10;87.60;;;;;;4917289;29;20039;-73
2021/01/22 09:43:20;;;;;;;11.73;6.63;;;6.20;87.60;;;;;;4917884;29;20039;-74
2021/01/22 09:45:46;;;;;;;8.48;6.22;;;6.10;87.70;;;;;;4901555;29;20028;-73
2021/01/22 09:48:16;;;;;;;7.95;5.97;;;6.20;87.70;;;;;;4901387;29;20400;-73
2021/01/22 09:50:41;;;;;;;11.38;6.60;;;6.20;87.70;;;;;;4918563;29;20115;-73
2021/01/22 09:56:29;;;;;;;9.32;6.45;;;6.20;87.50;;;;;;4915177;29;20066;-74
2021/01/22 09:58:54;;;;;;;11.82;6.47;;;6.30;87.70;;;;;;4919344;29;20023;-74
2021/01/22 10:01:20;;;;;;;9.70;6.50;;;6.30;87.40;;;;;;4918243;29;20043;-74
2021/01/22 10:03:46;;;;;;;9.10;5.95;;;6.30;87.50;;;;;;4917612;29;20472;-73
2021/01/22 10:06:13;;;;;;;7.22;5.50;;;6.40;87.40;;;;;;4901501;29;20028;-74
2021/01/22 10:08:39;;;;;;;8.80;5.80;;;6.40;87.30;;;;;;4917965;29;20108;-74
2021/01/22 10:11:05;;;;;;;7.72;5.80;;;6.50;87.50;;;;;;4901387;29;20119;-74
2021/01/22 10:13:31;;;;;;;8.98;5.22;;;6.50;87.30;;;;;;4916544;29;20028;-73
2021/01/22 10:15:57;;;;;;;8.45;5.57;;;6.60;87.20;;;;;;4917893;29;20072;-74
2021/01/22 10:18:23;;;;;;;11.02;5.95;;;6.70;87.20;;;;;;4917960;29;20035;-74
2021/01/22 10:20:49;;;;;;;10.55;5.78;;;6.70;87.10;;;;;;4917431;29;20052;-74
2021/01/22 10:23:15;;;;;;;10.07;5.63;;;6.80;87.10;;;;;;4917565;29;20036;-74
2021/01/22 10:25:41;;;;;;;13.38;8.20;;;6.80;86.80;;;;;;4916185;29;20035;-74
2021/01/22 10:28:07;;;;;;;13.85;8.05;;;6.90;86.90;;;;;;4916129;29;20028;-74
2021/01/22 10:30:33;;;;;;;11.07;6.07;;;6.90;86.70;;;;;;4917177;29;20032;-74
2021/01/22 10:32:59;;;;;;;9.88;5.88;;;6.90;86.40;;;;;;4917322;29;20026;-74
2021/01/22 10:35:24;;;;;;;9.95;5.45;;;6.90;86.30;;;;;;4917560;29;20031;-74
2021/01/22 10:37:50;;;;;;;9.75;5.20;;;7.00;86.40;;;;;;4917300;29;20031;-74
2021/01/22 10:40:16;;;;;;;8.95;4.40;;;7.00;86.30;;;;;;4915846;29;20032;-74
2021/01/22 10:42:42;;;;;;;15.02;6.70;;;7.00;86.10;;;;;;4917146;29;20032;-75
2021/01/22 10:45:08;;;;;;;10.20;5.93;;;7.00;85.80;;;;;;4915740;29;20058;-74
2021/01/22 10:47:34;;;;;;;10.85;5.10;;;7.00;85.60;;;;;;4916649;29;20028;-74
2021/01/22 10:50:00;;;;;;;10.02;5.68;;;7.00;85.80;;;;;;4915683;29;20543;-74
2021/01/22 10:52:25;;;;;;;14.30;4.78;;;7.10;85.70;;;;;;4915850;29;20062;-73
2021/01/22 10:54:51;;;;;;;8.82;4.55;;;7.10;85.60;;;;;;4917320;29;20432;-74
2021/01/22 10:57:17;;;;;;;7.88;5.18;;;7.10;85.70;;;;;;4917592;29;20513;-75
2021/01/22 10:59:42;;;;;;;7.13;4.03;;;7.20;85.70;;;;;;4915940;29;20035;-74
2021/01/22 11:02:09;;;;;;;9.88;4.93;;;7.20;85.70;;;;;;4917256;29;20452;-75
2021/01/22 11:04:35;;;;;;;9.43;4.22;;;7.30;85.70;;;;;;4916858;29;20479;-74
2021/01/22 11:07:03;;;;;;;9.50;4.57;;;7.30;85.60;;;;;;4915543;29;20047;-74
2021/01/22 11:09:30;;;;;;;9.18;4.45;;;7.30;85.30;;;;;;4916930;29;20047;-75
2021/01/22 11:11:55;;;;;;;9.25;4.38;;;7.30;85.40;;;;;;4916989;29;20043;-74
2021/01/22 11:14:21;;;;;;;13.07;3.97;;;7.30;85.20;;;;;;4916132;29;20433;-74
2021/01/22 11:16:47;;;;;;;9.50;4.25;;;7.30;85.30;;;;;;4915682;29;20072;-74
2021/01/22 11:19:13;;;;;;;7.18;4.13;;;7.30;85.20;;;;;;4917131;29;20032;-74
2021/01/22 11:21:38;;;;;;;10.25;4.50;;;7.40;85.10;;;;;;4915951;29;20067;-74
2021/01/22 11:24:05;;;;;;;8.57;4.20;;;7.30;85.00;;;;;;4899668;29;20024;-74
2021/01/22 11:26:31;;;;;;;6.75;3.90;;;7.30;85.10;;;;;;4915415;29;20079;-74
2021/01/22 11:28:57;;;;;;;6.45;3.63;;;7.30;85.00;;;;;;4915632;29;20032;-74
2021/01/22 11:31:22;;;;;;;8.43;3.85;;;7.30;85.00;;;;;;4899854;29;20032;-73
2021/01/22 11:33:48;;;;;;;9.32;3.38;;;7.40;85.00;;;;;;4917466;29;20050;-74
2021/01/22 11:36:13;;;;;;;8.90;4.00;;;7.40;85.00;;;;;;4916806;29;20039;-74
2021/01/22 11:38:39;;;;;;;10.98;3.95;;;7.40;84.50;;;;;;4915618;29;20020;-73
2021/01/22 11:41:05;;;;;;;6.93;3.50;;;7.50;84.50;;;;;;4916685;29;20032;-73
2021/01/22 11:43:31;;;;;;;11.95;3.80;;;7.40;84.00;;;;;;4916720;29;20476;-74
2021/01/22 11:45:57;;;;;;;8.73;3.95;;;7.40;84.10;;;;;;4917656;29;20204;-74
2021/01/22 11:48:23;;;;;;;6.60;3.20;;;7.50;84.20;;;;;;4918274;29;20535;-73
2021/01/22 11:50:48;;;;;;;6.72;3.45;;;7.50;84.20;;;;;;4917589;29;20040;-73
2021/01/22 11:53:14;;;;;;;6.40;3.40;;;7.60;84.20;;;;;;4917464;29;20040;-74
2021/01/22 11:55:40;;;;;;;5.40;2.90;;;7.60;84.10;;;;;;4896309;29;20135;-74
2021/01/22 11:58:06;;;;;;;9.52;3.45;;;7.70;84.20;;;;;;4897521;29;20029;-74
2021/01/22 12:00:33;;;;;;;9.55;3.63;;;7.70;84.10;;;;;;4897568;29;20041;-74
2021/01/22 12:02:59;;;;;;;6.30;3.33;;;7.80;84.00;;;;;;4897630;29;20448;-74
2021/01/22 12:05:25;;;;;;;6.90;3.25;;;7.80;83.80;;;;;;4911786;29;20511;-73
2021/01/22 12:07:51;;;;;;;15.05;3.70;;;7.90;83.80;;;;;;4897809;29;20028;-72
2021/01/22 12:10:16;;;;;;;7.85;3.50;;;7.90;83.20;;;;;;4898581;29;20029;-74
2021/01/22 12:12:43;;;;;;;6.13;3.30;;;8.00;83.10;;;;;;4897524;29;20115;-73
2021/01/22 12:15:09;;;;;;;6.82;3.20;;;7.90;82.60;;;;;;4912257;29;20064;-73
2021/01/22 12:17:35;;;;;;;7.95;3.45;;;7.90;82.70;;;;;;4914005;29;20032;-73
2021/01/22 12:20:00;;;;;;;13.40;3.60;;;7.90;81.80;;;;;;4898027;29;20051;-73
2021/01/22 12:22:26;;;;;;;9.88;3.65;;;7.90;82.40;;;;;;4900523;29;20380;-73
2021/01/22 12:24:52;;;;;;;6.63;3.30;;;7.80;81.80;;;;;;4898021;29;20047;-73
2021/01/22 12:27:17;;;;;;;9.18;2.97;;;7.80;81.90;;;;;;4916019;29;20095;-75
2021/01/22 12:29:43;;;;;;;9.50;3.28;;;7.80;82.10;;;;;;4900911;29;20441;-73
2021/01/22 12:32:08;;;;;;;8.38;3.70;;;7.80;81.90;;;;;;4901258;29;20480;-73
2021/01/22 12:34:34;;;;;;;4.75;3.10;;;7.80;82.00;;;;;;4915027;29;20036;-73
2021/01/22 12:37:00;;;;;;;9.05;3.50;;;7.80;81.80;;;;;;4900685;29;20374;-74
2021/01/22 12:39:25;;;;;;;5.95;2.97;;;7.80;82.50;;;;;;4900905;29;20044;-74
2021/01/22 12:41:51;;;;;;;10.07;3.53;;;7.80;81.60;;;;;;4900657;29;20040;-74
2021/01/22 12:44:17;;;;;;;7.05;2.88;;;7.80;81.40;;;;;;4915214;29;20047;-74
2021/01/22 12:46:43;;;;;;;7.20;2.80;;;7.70;81.30;;;;;;4915296;29;20035;-74
2021/01/22 12:49:09;;;;;;;8.32;3.33;;;7.70;81.30;;;;;;4915064;29;20071;-74
2021/01/22 12:51:34;;;;;;;9.07;3.00;;;7.60;81.10;;;;;;4914690;29;20025;-74
2021/01/22 12:54:00;;;;;;;8.48;2.97;;;7.60;81.10;;;;;;4900325;29;20029;-73
2021/01/22 12:56:26;;;;;;;8.20;2.90;;;7.60;80.90;;;;;;4916004;29;20063;-73
2021/01/22 12:58:51;;;;;;;8.57;3.28;;;7.60;81.00;;;;;;4917882;29;20054;-74
2021/01/22 13:01:17;;;;;;;7.70;2.97;;;7.60;80.80;;;;;;4917934;29;20032;-74
2021/01/22 13:03:43;;;;;;;8.70;2.80;;;7.60;80.90;;;;;;4919941;29;20147;-74